createdAt,value
2018-12-09T00:01:53.225Z,6.33
2018-12-09T00:04:24.059Z,3.90
2018-12-09T00:06:54.859Z,4.62
2018-12-09T00:09:23.754Z,3.75
2018-12-09T00:11:52.489Z,3.98
2018-12-09T00:14:21.205Z,7.75
2018-12-09T00:16:50.075Z,11.60
2018-12-09T00:19:18.954Z,12.13
2018-12-09T00:21:47.665Z,3.08
2018-12-09T00:24:16.363Z,5.17
2018-12-09T00:26:45.137Z,6.62
2018-12-09T00:29:13.965Z,4.70
2018-12-09T00:31:42.730Z,3.55
2018-12-09T00:34:11.578Z,5.70
2018-12-09T00:36:40.461Z,4.72
2018-12-09T00:39:09.416Z,5.30
2018-12-09T00:41:38.194Z,9.05
2018-12-09T00:44:06.976Z,6.42
2018-12-09T00:46:35.826Z,7.60
2018-12-09T00:49:04.722Z,6.55
2018-12-09T00:51:33.443Z,3.35
2018-12-09T00:54:02.289Z,8.60
2018-12-09T00:56:30.968Z,6.78
2018-12-09T00:58:59.735Z,6.85
2018-12-09T01:01:28.511Z,9.23
2018-12-09T01:03:57.213Z,5.83
2018-12-09T01:06:26.635Z,9.78
2018-12-09T01:08:55.464Z,3.92
2018-12-09T01:11:25.272Z,3.15
2018-12-09T01:13:54.049Z,3.55
2018-12-09T01:16:24.119Z,2.95
2018-12-09T01:18:52.982Z,3.95
2018-12-09T01:21:21.714Z,16.00
2018-12-09T01:23:50.469Z,6.70
2018-12-09T01:26:19.294Z,5.05
2018-12-09T01:28:48.003Z,3.65
2018-12-09T01:31:16.866Z,10.75
2018-12-09T01:33:45.602Z,3.50
2018-12-09T01:36:14.338Z,7.53
2018-12-09T01:38:43.656Z,2.85
2018-12-09T01:41:12.500Z,4.80
2018-12-09T01:43:41.387Z,5.55
2018-12-09T01:46:10.211Z,5.00
2018-12-09T01:48:39.041Z,5.72
2018-12-09T01:51:07.867Z,7.45
2018-12-09T01:54:11.775Z,8.55
2018-12-09T01:56:40.726Z,5.10
2018-12-09T01:59:09.632Z,6.40
2018-12-09T02:01:38.636Z,4.10
2018-12-09T02:04:07.883Z,10.48
2018-12-09T02:06:36.805Z,17.35
2018-12-09T02:09:07.984Z,5.20
2018-12-09T02:11:36.966Z,3.95
2018-12-09T02:14:05.816Z,7.78
2018-12-09T02:16:35.075Z,4.10
2018-12-09T02:19:24.860Z,9.83
2018-12-09T02:21:53.803Z,4.58
2018-12-09T02:24:23.049Z,9.45
2018-12-09T02:26:51.838Z,4.90
2018-12-09T02:29:20.504Z,9.88
2018-12-09T02:31:49.350Z,7.95
2018-12-09T02:34:19.160Z,7.87
2018-12-09T02:36:47.927Z,2.75
2018-12-09T02:39:16.800Z,4.20
2018-12-09T02:41:45.595Z,5.80
2018-12-09T02:44:14.422Z,4.33
2018-12-09T02:46:43.119Z,6.87
2018-12-09T02:49:11.887Z,4.62
2018-12-09T02:51:40.862Z,5.28
2018-12-09T02:54:09.862Z,3.45
2018-12-09T02:56:39.040Z,6.30
2018-12-09T02:59:08.552Z,4.53
2018-12-09T03:01:37.321Z,3.17
2018-12-09T03:04:06.233Z,2.95
2018-12-09T03:06:35.015Z,6.83
2018-12-09T03:09:06.123Z,6.65
2018-12-09T03:11:35.758Z,4.40
2018-12-09T03:14:04.568Z,6.30
2018-12-09T03:16:33.378Z,4.62
2018-12-09T03:19:02.151Z,9.10
2018-12-09T03:21:30.930Z,3.70
2018-12-09T03:23:59.719Z,5.47
2018-12-09T03:26:28.659Z,4.60
2018-12-09T03:28:57.773Z,4.90
2018-12-09T03:31:26.732Z,7.33
2018-12-09T03:33:57.537Z,8.45
2018-12-09T03:36:26.358Z,4.28
2018-12-09T03:38:56.610Z,1.90
2018-12-09T03:41:25.399Z,4.20
2018-12-09T03:43:54.286Z,14.30
2018-12-09T03:46:23.056Z,15.55
2018-12-09T03:48:51.854Z,4.12
2018-12-09T03:51:20.777Z,9.05
2018-12-09T03:53:49.689Z,5.80
2018-12-09T03:56:18.432Z,4.25
2018-12-09T03:58:47.321Z,2.87
2018-12-09T04:01:16.051Z,11.90
2018-12-09T04:03:44.942Z,6.00
2018-12-09T04:06:13.804Z,4.10
2018-12-09T04:08:42.572Z,2.58
2018-12-09T04:11:11.412Z,7.50
2018-12-09T04:13:40.612Z,4.87
2018-12-09T04:16:09.573Z,4.30
2018-12-09T04:18:40.314Z,10.90
2018-12-09T04:21:09.293Z,11.10
2018-12-09T04:23:38.003Z,5.72
2018-12-09T04:26:06.750Z,2.42
2018-12-09T04:28:35.434Z,8.23
2018-12-09T04:31:04.202Z,3.83
2018-12-09T04:33:33.419Z,2.87
2018-12-09T04:36:02.557Z,4.92
2018-12-09T04:38:31.322Z,2.15
2018-12-09T04:41:00.150Z,7.97
2018-12-09T04:43:28.979Z,5.33
2018-12-09T04:45:57.834Z,7.30
2018-12-09T04:48:26.692Z,2.55
2018-12-09T04:50:56.507Z,8.35
2018-12-09T04:53:25.328Z,7.28
2018-12-09T04:55:54.221Z,5.25
2018-12-09T04:58:23.417Z,2.40
2018-12-09T05:00:54.202Z,4.60
2018-12-09T05:03:23.921Z,2.90
2018-12-09T05:05:52.899Z,16.45
2018-12-09T05:08:21.729Z,6.42
2018-12-09T05:10:50.631Z,7.22
2018-12-09T05:13:19.656Z,3.67
2018-12-09T05:15:48.461Z,4.70
2018-12-09T05:18:17.181Z,2.77
2018-12-09T05:20:46.429Z,3.17
2018-12-09T05:23:15.348Z,3.90
2018-12-09T05:25:44.050Z,2.00
2018-12-09T05:28:13.738Z,2.47
2018-12-09T05:30:42.581Z,4.17
2018-12-09T05:33:11.350Z,4.37
2018-12-09T05:35:40.115Z,3.40
2018-12-09T05:38:08.904Z,2.75
2018-12-09T05:40:37.897Z,6.08
2018-12-09T05:43:06.742Z,8.85
2018-12-09T05:45:35.415Z,3.42
2018-12-09T05:48:04.215Z,3.27
2018-12-09T05:50:32.974Z,3.45
2018-12-09T05:53:01.819Z,7.17
2018-12-09T05:55:30.986Z,6.17
2018-12-09T05:57:59.671Z,3.22
2018-12-09T06:00:28.505Z,4.78
2018-12-09T06:02:58.214Z,2.22
2018-12-09T06:05:26.935Z,5.65
2018-12-09T06:07:55.744Z,3.45
2018-12-09T06:10:24.503Z,5.95
2018-12-09T06:12:53.232Z,3.20
2018-12-09T06:15:24.984Z,5.70
2018-12-09T06:17:53.717Z,2.52
2018-12-09T06:20:22.473Z,5.25
2018-12-09T06:22:51.234Z,4.97
2018-12-09T06:25:21.180Z,2.10
2018-12-09T06:27:50.755Z,4.17
2018-12-09T06:30:19.526Z,3.50
2018-12-09T06:32:48.395Z,2.75
2018-12-09T06:35:17.245Z,3.85
2018-12-09T06:37:46.023Z,2.25
2018-12-09T06:40:14.743Z,6.67
2018-12-09T06:42:43.586Z,2.17
2018-12-09T06:45:13.679Z,3.58
2018-12-09T06:47:42.980Z,2.08
2018-12-09T06:50:12.092Z,1.82
2018-12-09T06:52:41.190Z,2.72
2018-12-09T06:55:10.079Z,3.33
2018-12-09T06:57:38.785Z,9.78
2018-12-09T07:00:08.874Z,2.87
2018-12-09T07:02:38.800Z,6.22
2018-12-09T07:05:08.375Z,5.03
2018-12-09T07:07:37.143Z,5.42
2018-12-09T07:10:08.425Z,2.37
2018-12-09T07:12:37.582Z,3.60
2018-12-09T07:15:06.950Z,9.13
2018-12-09T07:17:35.751Z,3.08
2018-12-09T07:20:06.033Z,4.70
2018-12-09T07:22:34.773Z,6.05
2018-12-09T07:25:03.873Z,7.10
2018-12-09T07:27:32.891Z,3.90
2018-12-09T07:30:02.531Z,1.95
2018-12-09T07:32:31.724Z,3.05
2018-12-09T07:35:00.512Z,2.58
2018-12-09T07:37:29.198Z,1.75
2018-12-09T07:39:58.295Z,3.27
2018-12-09T07:42:27.810Z,1.52
2018-12-09T07:44:56.642Z,1.98
2018-12-09T07:47:25.473Z,3.05
2018-12-09T07:49:54.261Z,1.72
2018-12-09T07:52:23.020Z,3.35
2018-12-09T07:54:51.780Z,1.95
2018-12-09T07:57:20.546Z,2.33
2018-12-09T07:59:49.320Z,2.42
2018-12-09T08:02:18.012Z,1.92
2018-12-09T08:04:46.744Z,2.22
2018-12-09T08:07:15.450Z,3.40
2018-12-09T08:09:44.159Z,2.08
2018-12-09T08:12:12.970Z,5.08
2018-12-09T08:14:41.793Z,3.37
2018-12-09T08:17:10.659Z,1.72
2018-12-09T08:19:39.360Z,6.72
2018-12-09T08:22:08.148Z,2.42
2018-12-09T08:24:36.859Z,3.10
2018-12-09T08:27:05.768Z,4.78
2018-12-09T08:29:34.761Z,2.00
2018-12-09T08:32:03.802Z,3.47
2018-12-09T08:34:32.544Z,1.72
2018-12-09T08:37:01.429Z,4.80
2018-12-09T08:39:30.321Z,2.85
2018-12-09T08:41:59.083Z,2.75
2018-12-09T08:44:27.926Z,7.83
2018-12-09T08:46:56.665Z,1.95
2018-12-09T08:49:25.484Z,4.70
2018-12-09T08:51:55.470Z,2.20
2018-12-09T08:54:24.275Z,1.85
2018-12-09T08:56:53.050Z,2.10
2018-12-09T08:59:21.808Z,2.72
2018-12-09T09:01:50.529Z,3.00
2018-12-09T09:04:19.426Z,1.40
2018-12-09T09:06:48.085Z,1.62
2018-12-09T09:09:16.898Z,3.00
2018-12-09T09:11:45.569Z,7.47
2018-12-09T09:14:14.331Z,2.60
2018-12-09T09:16:43.282Z,2.90
2018-12-09T09:19:11.976Z,2.15
2018-12-09T09:21:40.773Z,2.62
2018-12-09T09:24:09.585Z,3.33
2018-12-09T09:26:38.309Z,2.95
2018-12-09T09:29:07.019Z,2.85
2018-12-09T09:31:35.785Z,2.75
2018-12-09T09:34:04.774Z,4.37
2018-12-09T09:36:33.577Z,2.12
2018-12-09T09:39:02.406Z,3.83
2018-12-09T09:41:32.203Z,13.22
2018-12-09T09:44:01.050Z,5.40
2018-12-09T09:46:29.849Z,3.15
2018-12-09T09:48:58.577Z,3.35
2018-12-09T09:51:27.270Z,2.02
2018-12-09T09:53:56.059Z,4.40
2018-12-09T09:56:24.889Z,3.67
2018-12-09T09:58:53.589Z,5.75
2018-12-09T10:01:22.503Z,2.35
2018-12-09T10:03:51.242Z,6.53
2018-12-09T10:06:20.047Z,4.90
2018-12-09T10:08:48.791Z,5.58
2018-12-09T10:11:17.515Z,1.85
2018-12-09T10:13:47.323Z,7.78
2018-12-09T10:16:16.026Z,1.42
2018-12-09T10:18:44.793Z,3.95
2018-12-09T10:21:13.639Z,3.22
2018-12-09T10:23:42.502Z,2.37
2018-12-09T10:26:11.295Z,2.30
2018-12-09T10:28:40.016Z,2.58
2018-12-09T10:31:08.778Z,2.22
2018-12-09T10:33:37.509Z,1.30
2018-12-09T10:36:06.228Z,1.98
2018-12-09T10:38:34.950Z,2.87
2018-12-09T10:41:03.799Z,3.15
2018-12-09T10:43:32.694Z,3.95
2018-12-09T10:46:01.423Z,3.75
2018-12-09T10:48:30.167Z,9.13
2018-12-09T10:50:59.706Z,4.67
2018-12-09T10:53:28.638Z,2.20
2018-12-09T10:55:57.452Z,1.40
2018-12-09T10:58:26.155Z,2.50
2018-12-09T11:01:00.250Z,2.90
2018-12-09T11:03:29.498Z,2.20
2018-12-09T11:05:58.416Z,6.08
2018-12-09T11:08:27.249Z,2.45
2018-12-09T11:10:56.138Z,2.87
2018-12-09T11:13:24.858Z,2.77
2018-12-09T11:15:53.616Z,3.33
2018-12-09T11:18:22.393Z,6.33
2018-12-09T11:20:51.179Z,3.25
2018-12-09T11:23:19.973Z,9.18
2018-12-09T11:25:48.687Z,8.80
2018-12-09T11:28:17.499Z,8.05
2018-12-09T11:30:46.342Z,4.53
2018-12-09T11:33:15.209Z,2.60
2018-12-09T11:35:44.010Z,5.75
2018-12-09T11:38:12.846Z,3.55
2018-12-09T11:40:41.602Z,2.92
2018-12-09T11:43:10.436Z,1.98
2018-12-09T11:45:39.706Z,2.37
2018-12-09T11:48:08.461Z,2.95
2018-12-09T11:50:37.214Z,3.87
2018-12-09T11:53:06.127Z,2.08
2018-12-09T11:55:34.918Z,1.90
2018-12-09T11:58:03.730Z,8.00
2018-12-09T12:00:33.541Z,1.65
2018-12-09T12:03:02.450Z,7.30
2018-12-09T12:05:31.140Z,2.22
2018-12-09T12:07:59.929Z,1.85
2018-12-09T12:10:28.695Z,2.58
2018-12-09T12:12:57.568Z,4.55
2018-12-09T12:15:27.208Z,6.83
2018-12-09T12:17:56.047Z,4.12
2018-12-09T12:20:24.775Z,18.15
2018-12-09T12:22:53.557Z,105.58
2018-12-09T12:25:22.348Z,129.70
2018-12-09T12:27:51.295Z,189.52
2018-12-09T12:30:20.305Z,217.50
2018-12-09T12:32:49.019Z,284.65
2018-12-09T12:35:17.765Z,324.00
2018-12-09T12:37:46.565Z,367.30
2018-12-09T12:40:16.375Z,404.12
2018-12-09T12:42:45.212Z,429.07
2018-12-09T12:45:14.072Z,438.30
2018-12-09T12:47:43.014Z,469.95
2018-12-09T12:50:11.900Z,487.77
2018-12-09T12:52:40.649Z,450.83
2018-12-09T12:55:09.531Z,442.85
2018-12-09T12:57:38.278Z,421.77
2018-12-09T13:00:13.808Z,384.67
2018-12-09T13:02:42.737Z,382.90
2018-12-09T13:05:11.593Z,424.60
2018-12-09T13:07:40.478Z,377.30
2018-12-09T13:10:09.407Z,368.97
2018-12-09T13:12:39.075Z,265.02
2018-12-09T13:15:08.691Z,282.70
2018-12-09T13:17:37.535Z,429.87
2018-12-09T13:20:07.460Z,275.45
2018-12-09T13:22:36.293Z,311.07
2018-12-09T13:25:05.614Z,273.60
2018-12-09T13:27:34.578Z,254.90
2018-12-09T13:30:03.789Z,281.70
2018-12-09T13:32:32.992Z,249.73
2018-12-09T13:35:02.056Z,277.45
2018-12-09T13:37:30.792Z,238.57
2018-12-09T13:39:59.569Z,239.12
2018-12-09T13:42:29.724Z,245.17
2018-12-09T13:44:59.598Z,223.30
2018-12-09T13:47:28.420Z,254.40
2018-12-09T13:49:58.304Z,196.93
2018-12-09T13:52:27.032Z,197.68
2018-12-09T13:54:55.942Z,214.80
2018-12-09T13:57:24.713Z,210.08
2018-12-09T13:59:53.517Z,189.80
2018-12-09T14:02:22.335Z,175.93
2018-12-09T14:04:51.115Z,168.47
2018-12-09T14:07:19.887Z,188.52
2018-12-09T14:09:48.667Z,163.45
2018-12-09T14:12:17.557Z,179.55
2018-12-09T14:14:46.328Z,183.22
2018-12-09T14:17:15.163Z,166.20
2018-12-09T14:19:44.124Z,168.40
2018-12-09T14:22:12.884Z,184.67
2018-12-09T14:24:41.715Z,154.07
2018-12-09T14:27:13.214Z,162.80
2018-12-09T14:29:41.155Z,177.55
2018-12-09T14:32:10.235Z,177.47
2018-12-09T14:34:40.127Z,173.57
2018-12-09T14:37:08.877Z,150.70
2018-12-09T14:39:37.663Z,150.42
2018-12-09T14:42:06.573Z,206.93
2018-12-09T14:44:35.323Z,177.95
2018-12-09T14:47:04.290Z,125.62
2018-12-09T14:49:33.123Z,145.32
2018-12-09T14:52:01.955Z,148.75
2018-12-09T14:54:30.668Z,123.28
2018-12-09T14:56:59.524Z,116.95
2018-12-09T14:59:28.232Z,140.10
2018-12-09T15:01:58.019Z,126.85
2018-12-09T15:04:26.737Z,130.93
2018-12-09T15:06:55.494Z,120.37
2018-12-09T15:09:24.373Z,110.50
2018-12-09T15:11:53.164Z,106.45
2018-12-09T15:14:22.060Z,101.75
2018-12-09T15:16:51.045Z,113.70
2018-12-09T15:19:19.819Z,130.97
2018-12-09T15:21:48.631Z,115.17
2018-12-09T15:24:17.368Z,107.92
2018-12-09T15:26:46.143Z,103.42
2018-12-09T15:29:16.240Z,100.72
2018-12-09T15:31:44.945Z,101.12
2018-12-09T15:34:13.687Z,108.63
2018-12-09T15:36:42.395Z,115.42
2018-12-09T15:39:11.175Z,83.67
2018-12-09T15:41:39.960Z,77.62
2018-12-09T15:44:08.757Z,87.05
2018-12-09T15:46:37.640Z,70.60
2018-12-09T15:49:07.411Z,77.12
2018-12-09T15:51:36.137Z,81.12
2018-12-09T15:54:04.898Z,86.85
2018-12-09T15:56:33.607Z,67.95
2018-12-09T15:59:02.384Z,70.70
2018-12-09T16:01:31.197Z,85.55
2018-12-09T16:04:00.067Z,70.57
2018-12-09T16:06:28.764Z,56.02
2018-12-09T16:08:57.487Z,55.03
2018-12-09T16:11:26.275Z,65.75
2018-12-09T16:13:55.019Z,83.52
2018-12-09T16:16:24.500Z,65.05
2018-12-09T16:18:53.249Z,54.50
2018-12-09T16:21:22.015Z,65.37
2018-12-09T16:23:51.781Z,54.75
2018-12-09T16:26:20.588Z,67.53
2018-12-09T16:28:50.502Z,54.77
2018-12-09T16:31:20.210Z,68.10
2018-12-09T16:33:48.905Z,60.52
2018-12-09T16:36:17.802Z,47.88
2018-12-09T16:38:46.577Z,37.65
2018-12-09T16:41:15.697Z,39.10
2018-12-09T16:43:44.558Z,51.60
2018-12-09T16:46:13.434Z,48.52
2018-12-09T16:48:43.314Z,90.10
2018-12-09T16:51:13.311Z,35.63
2018-12-09T16:53:42.071Z,34.78
2018-12-09T16:56:10.871Z,42.60
2018-12-09T16:58:39.640Z,34.67
2018-12-09T17:01:08.320Z,39.85
2018-12-09T17:03:37.038Z,29.85
2018-12-09T17:06:05.831Z,41.98
2018-12-09T17:08:34.671Z,48.98
2018-12-09T17:11:04.887Z,36.23
2018-12-09T17:13:33.713Z,31.10
2018-12-09T17:16:03.294Z,30.77
2018-12-09T17:18:32.066Z,74.60
2018-12-09T17:21:00.875Z,241.27
2018-12-09T17:23:29.805Z,177.87
2018-12-09T17:25:58.676Z,127.80
2018-12-09T17:28:27.416Z,127.90
2018-12-09T17:30:56.153Z,175.97
2018-12-09T17:33:24.921Z,211.03
2018-12-09T17:35:53.715Z,167.72
2018-12-09T17:38:22.453Z,147.53
2018-12-09T17:40:51.237Z,153.35
2018-12-09T17:43:20.084Z,182.37
2018-12-09T17:45:49.037Z,140.65
2018-12-09T17:48:17.793Z,127.58
2018-12-09T17:50:48.085Z,151.02
2018-12-09T17:53:17.733Z,156.90
2018-12-09T17:55:46.449Z,138.35
2018-12-09T17:58:15.167Z,158.20
2018-12-09T18:00:44.257Z,168.32
2018-12-09T18:03:13.893Z,130.95
2018-12-09T18:05:42.640Z,133.90
2018-12-09T18:08:15.094Z,133.07
2018-12-09T18:10:43.832Z,142.00
2018-12-09T18:13:12.729Z,151.20
2018-12-09T18:15:41.589Z,108.35
2018-12-09T18:18:10.622Z,131.57
2018-12-09T18:20:39.462Z,125.12
2018-12-09T18:23:08.147Z,126.18
2018-12-09T18:25:37.031Z,113.47
2018-12-09T18:28:05.818Z,114.85
2018-12-09T18:30:34.660Z,110.50
2018-12-09T18:33:03.522Z,102.42
2018-12-09T18:35:32.598Z,112.88
2018-12-09T18:38:01.571Z,96.20
2018-12-09T18:40:30.491Z,113.10
2018-12-09T18:42:59.233Z,93.42
2018-12-09T18:45:28.041Z,104.95
2018-12-09T18:47:57.042Z,113.52
2018-12-09T18:50:26.431Z,107.25
2018-12-09T18:52:55.156Z,95.32
2018-12-09T18:55:25.559Z,92.85
2018-12-09T18:57:54.357Z,98.40
2018-12-09T19:00:23.186Z,82.47
2018-12-09T19:02:51.906Z,84.55
2018-12-09T19:05:20.814Z,91.63
2018-12-09T19:07:49.827Z,84.47
2018-12-09T19:10:18.686Z,93.72
2018-12-09T19:12:48.610Z,69.12
2018-12-09T19:15:20.080Z,77.37
2018-12-09T19:17:48.982Z,62.17
2018-12-09T19:20:17.763Z,79.45
2018-12-09T19:22:46.623Z,67.60
2018-12-09T19:25:16.007Z,50.85
2018-12-09T19:27:45.739Z,65.80
2018-12-09T19:30:14.468Z,65.37
2018-12-09T19:32:43.359Z,68.78
2018-12-09T19:35:14.086Z,57.43
2018-12-09T19:37:43.339Z,65.30
2018-12-09T19:40:12.188Z,57.98
2018-12-09T19:42:40.933Z,39.20
2018-12-09T19:45:09.812Z,56.33
2018-12-09T19:47:39.316Z,61.15
2018-12-09T19:50:08.153Z,44.70
2018-12-09T19:52:36.895Z,69.72
2018-12-09T19:55:05.950Z,58.98
2018-12-09T19:57:34.735Z,51.77
2018-12-09T20:00:03.621Z,56.70
2018-12-09T20:02:32.935Z,60.10
2018-12-09T20:05:01.783Z,44.50
2018-12-09T20:07:30.701Z,41.00
2018-12-09T20:10:00.263Z,46.68
2018-12-09T20:12:29.681Z,56.30
2018-12-09T20:14:58.418Z,40.52
2018-12-09T20:17:27.328Z,45.75
2018-12-09T20:19:56.120Z,47.10
2018-12-09T20:22:25.183Z,51.85
2018-12-09T20:24:53.938Z,42.67
2018-12-09T20:27:22.723Z,37.42
2018-12-09T20:29:51.481Z,29.05
2018-12-09T20:32:20.283Z,34.88
2018-12-09T20:34:48.999Z,30.40
2018-12-09T20:37:17.783Z,39.30
2018-12-09T20:39:46.621Z,39.15
2018-12-09T20:42:15.359Z,33.00
2018-12-09T20:44:44.159Z,42.23
2018-12-09T20:47:12.963Z,43.85
2018-12-09T20:49:41.720Z,36.70
2018-12-09T20:52:10.433Z,40.28
2018-12-09T20:54:40.232Z,32.83
2018-12-09T20:57:08.991Z,34.63
2018-12-09T20:59:37.797Z,30.68
2018-12-09T21:02:06.670Z,42.65
2018-12-09T21:04:35.371Z,35.10
2018-12-09T21:07:05.141Z,36.48
2018-12-09T21:09:34.129Z,32.50
2018-12-09T21:12:03.115Z,30.62
2018-12-09T21:14:32.924Z,23.75
2018-12-09T21:17:01.786Z,36.17
2018-12-09T21:19:30.554Z,34.90
2018-12-09T21:21:59.345Z,34.92
2018-12-09T21:24:28.178Z,34.70
2018-12-09T21:27:03.607Z,32.20
2018-12-09T21:29:32.382Z,29.27
2018-12-09T21:32:01.305Z,34.33
2018-12-09T21:34:30.139Z,26.90
2018-12-09T21:37:00.110Z,26.33
2018-12-09T21:39:29.072Z,20.48
2018-12-09T21:41:57.882Z,29.92
2018-12-09T21:44:26.597Z,19.87
2018-12-09T21:46:55.363Z,24.85
2018-12-09T21:49:24.289Z,26.23
2018-12-09T21:51:53.094Z,23.73
2018-12-09T21:54:21.894Z,28.32
2018-12-09T21:56:50.617Z,18.35
2018-12-09T21:59:20.122Z,23.55
2018-12-09T22:01:48.803Z,21.60
2018-12-09T22:04:17.602Z,23.30
2018-12-09T22:06:46.372Z,16.32
2018-12-09T22:09:15.229Z,21.20
2018-12-09T22:11:43.981Z,20.37
2018-12-09T22:14:12.941Z,21.40
2018-12-09T22:16:41.700Z,22.90
2018-12-09T22:19:11.709Z,16.37
2018-12-09T22:21:40.741Z,15.35
2018-12-09T22:24:09.513Z,16.20
2018-12-09T22:26:38.408Z,13.95
2018-12-09T22:29:07.293Z,17.80
2018-12-09T22:31:36.000Z,12.85
2018-12-09T22:34:04.713Z,20.52
2018-12-09T22:36:33.434Z,20.32
2018-12-09T22:39:02.331Z,18.57
2018-12-09T22:41:31.214Z,16.10
2018-12-09T22:44:00.031Z,15.85
2018-12-09T22:46:28.806Z,12.07
2018-12-09T22:48:57.549Z,11.78
2018-12-09T22:51:26.290Z,24.15
2018-12-09T22:53:55.343Z,21.45
2018-12-09T22:56:24.148Z,22.55
2018-12-09T22:58:52.851Z,19.95
2018-12-09T23:01:22.223Z,10.70
2018-12-09T23:03:51.963Z,15.83
2018-12-09T23:06:20.757Z,22.05
2018-12-09T23:08:49.757Z,12.85
2018-12-09T23:11:18.688Z,19.37
2018-12-09T23:13:47.425Z,21.50
2018-12-09T23:16:16.847Z,15.23
2018-12-09T23:18:45.583Z,11.05
2018-12-09T23:21:14.506Z,14.38
2018-12-09T23:23:43.216Z,22.50
2018-12-09T23:26:13.002Z,17.95
2018-12-09T23:28:41.717Z,16.40
2018-12-09T23:31:10.494Z,14.60
2018-12-09T23:33:39.946Z,9.50
2018-12-09T23:36:08.669Z,13.00
2018-12-09T23:38:37.368Z,18.57
2018-12-09T23:41:06.097Z,15.03
2018-12-09T23:43:34.879Z,14.03
2018-12-09T23:46:03.859Z,13.60
2018-12-09T23:48:32.616Z,13.72
2018-12-09T23:51:01.369Z,15.13
2018-12-09T23:53:30.310Z,12.03
2018-12-09T23:55:59.011Z,11.90
2018-12-09T23:58:27.733Z,15.30
